Weather at Caposile Airfield

Public forecast

Using degrees Celsius for public forecast. Weather courtesy of forecast.io.

Closest aviation weather report (METAR) to Caposile Airfield

Closest report is Venice Marco Polo Airport, 10.1 nm (18.7 km) WSW.

2024/07/16 19:50 (retrieved 20 minutes ago)

LIPZ 161950Z 18003KT CAVOK 28/23 Q1011 NOSIG

Closest aviation forecast (TAF) to Caposile Airfield

Closest forecast is Venice Marco Polo Airport, 10.1 nm (18.7 km) WSW.

2024/07/16 18:20 (retrieved 2 hours ago)

TAF LIPZ 161700Z 1618/1724 VRB05KT CAVOK BECMG 1703/1705 05010KT BECMG 1710/1712 VRB05KT BECMG 1720/1722 04010KT